createdAt,value
2018-10-12T00:00:07.437Z,1
2018-10-12T00:00:36.929Z,1
2018-10-12T00:01:06.434Z,1
2018-10-12T00:01:35.927Z,1
2018-10-12T00:02:05.428Z,1
2018-10-12T00:02:34.924Z,1
2018-10-12T00:03:04.430Z,1
2018-10-12T00:03:33.978Z,1
2018-10-12T00:04:03.465Z,1
2018-10-12T00:04:32.954Z,1
2018-10-12T00:05:02.455Z,1
2018-10-12T00:05:31.944Z,1
2018-10-12T00:06:01.443Z,1
2018-10-12T00:06:30.931Z,1
2018-10-12T00:07:00.465Z,1
2018-10-12T00:07:29.960Z,1
2018-10-12T00:08:00.445Z,1
2018-10-12T00:08:29.995Z,1
2018-10-12T00:09:00.482Z,1
2018-10-12T00:09:29.983Z,1
2018-10-12T00:10:00.462Z,1
2018-10-12T00:10:29.962Z,1
2018-10-12T00:11:00.461Z,1
2018-10-12T00:11:29.965Z,1
2018-10-12T00:11:59.483Z,1
2018-10-12T00:12:28.986Z,1
2018-10-12T00:12:58.497Z,1
2018-10-12T00:13:28.053Z,1
2018-10-12T00:13:57.544Z,1
2018-10-12T00:14:27.036Z,1
2018-10-12T00:14:56.539Z,1
2018-10-12T00:15:26.048Z,1
2018-10-12T00:15:55.596Z,1
2018-10-12T00:16:25.098Z,1
2018-10-12T00:16:54.591Z,1
2018-10-12T00:17:24.084Z,1
2018-10-12T00:17:53.586Z,1
2018-10-12T00:18:23.100Z,1
2018-10-12T00:18:52.643Z,1
2018-10-12T00:19:22.173Z,1
2018-10-12T00:19:51.667Z,1
2018-10-12T00:20:21.177Z,1
2018-10-12T00:20:50.677Z,1
2018-10-12T00:21:20.171Z,1
2018-10-12T00:21:49.683Z,1
2018-10-12T00:22:19.194Z,1
2018-10-12T00:22:48.686Z,1
2018-10-12T00:23:18.185Z,1
2018-10-12T00:23:47.789Z,1
2018-10-12T00:24:17.280Z,1
2018-10-12T00:24:46.774Z,1
2018-10-12T00:25:16.275Z,1
2018-10-12T00:25:45.777Z,1
2018-10-12T00:26:15.264Z,1
2018-10-12T00:26:44.771Z,1
2018-10-12T00:27:14.271Z,1
2018-10-12T00:27:43.761Z,1
2018-10-12T00:28:13.261Z,1
2018-10-12T00:28:42.752Z,1
2018-10-12T00:29:12.311Z,1
2018-10-12T00:29:41.823Z,1
2018-10-12T00:30:11.348Z,1
2018-10-12T00:30:40.843Z,1
2018-10-12T00:31:10.338Z,1
2018-10-12T00:31:39.836Z,1
2018-10-12T00:32:09.337Z,1
2018-10-12T00:32:38.840Z,1
2018-10-12T00:33:08.359Z,1
2018-10-12T00:33:37.870Z,1
2018-10-12T00:34:07.408Z,1
2018-10-12T00:34:36.909Z,1
2018-10-12T00:35:06.400Z,1
2018-10-12T00:35:35.891Z,1
2018-10-12T00:36:05.387Z,1
2018-10-12T00:36:34.890Z,1
2018-10-12T00:37:04.388Z,1
2018-10-12T00:37:33.886Z,1
2018-10-12T00:38:03.382Z,1
2018-10-12T00:38:32.904Z,1
2018-10-12T00:39:02.413Z,1
2018-10-12T00:39:31.960Z,1
2018-10-12T00:40:01.468Z,1
2018-10-12T00:40:30.950Z,1
2018-10-12T00:41:01.432Z,1
2018-10-12T00:41:30.969Z,1
2018-10-12T00:42:00.487Z,1
2018-10-12T00:42:29.995Z,1
2018-10-12T00:42:59.486Z,1
2018-10-12T00:43:28.977Z,1
2018-10-12T00:43:58.466Z,1
2018-10-12T00:44:28.016Z,1
2018-10-12T00:44:57.516Z,1
2018-10-12T00:45:27.010Z,1
2018-10-12T00:45:57.506Z,1
2018-10-12T00:46:26.987Z,1
2018-10-12T00:46:56.481Z,1
2018-10-12T00:47:25.976Z,1
2018-10-12T00:47:55.506Z,1
2018-10-12T00:48:25.016Z,1
2018-10-12T00:48:54.516Z,1
2018-10-12T00:49:24.020Z,1
2018-10-12T00:49:53.632Z,1
2018-10-12T00:50:23.085Z,1
2018-10-12T00:50:52.596Z,1
2018-10-12T00:51:22.100Z,1
2018-10-12T00:51:51.588Z,1
2018-10-12T00:52:21.074Z,1
2018-10-12T00:52:50.587Z,1
2018-10-12T00:53:20.076Z,1
2018-10-12T00:53:49.572Z,1
2018-10-12T00:54:19.065Z,1
2018-10-12T00:54:48.626Z,1
2018-10-12T00:55:19.108Z,1
2018-10-12T00:55:48.608Z,1
2018-10-12T00:56:18.161Z,1
2018-10-12T00:56:47.656Z,1
2018-10-12T00:57:17.153Z,1
2018-10-12T00:57:46.642Z,1
2018-10-12T00:58:16.133Z,1
2018-10-12T00:58:45.635Z,1
2018-10-12T00:59:15.141Z,1
2018-10-12T00:59:45.659Z,1
2018-10-12T01:00:15.208Z,1
2018-10-12T01:00:44.699Z,1
2018-10-12T01:01:14.211Z,1
2018-10-12T01:01:43.701Z,1
2018-10-12T01:02:13.196Z,1
2018-10-12T01:02:42.714Z,1
2018-10-12T01:03:12.224Z,1
2018-10-12T01:03:41.721Z,1
2018-10-12T01:04:11.212Z,1
2018-10-12T01:04:40.720Z,1
2018-10-12T01:05:10.278Z,1
2018-10-12T01:05:39.783Z,1
2018-10-12T01:06:09.297Z,1
2018-10-12T01:06:38.829Z,1
2018-10-12T01:07:08.299Z,1
2018-10-12T01:07:37.787Z,1
2018-10-12T01:08:07.279Z,1
2018-10-12T01:08:36.785Z,1
2018-10-12T01:09:06.279Z,1
2018-10-12T01:09:35.765Z,1
2018-10-12T01:10:05.260Z,1
2018-10-12T01:10:34.836Z,1
2018-10-12T01:11:04.337Z,1
2018-10-12T01:11:33.828Z,1
2018-10-12T01:12:03.331Z,1
2018-10-12T01:12:32.808Z,1
2018-10-12T01:13:02.303Z,1
2018-10-12T01:13:31.799Z,1
2018-10-12T01:14:01.286Z,1
2018-10-12T01:14:30.785Z,1
2018-10-12T01:15:00.267Z,1
2018-10-12T01:15:29.810Z,1
2018-10-12T01:15:59.312Z,1
2018-10-12T01:16:28.799Z,1
2018-10-12T01:16:58.292Z,1
2018-10-12T01:17:27.801Z,1
2018-10-12T01:17:57.294Z,1
2018-10-12T01:18:26.786Z,1
2018-10-12T01:18:56.279Z,1
2018-10-12T01:19:25.816Z,1
2018-10-12T01:19:55.304Z,1
2018-10-12T01:20:25.788Z,1
2018-10-12T01:20:55.322Z,1
2018-10-12T01:21:24.812Z,1
2018-10-12T01:21:54.326Z,1
2018-10-12T01:22:23.825Z,1
2018-10-12T01:22:53.313Z,1
2018-10-12T01:23:22.801Z,1
2018-10-12T01:23:52.297Z,1
2018-10-12T01:24:21.790Z,1
2018-10-12T01:24:51.283Z,1
2018-10-12T01:25:20.788Z,1
2018-10-12T01:25:50.348Z,1
2018-10-12T01:26:20.826Z,1
2018-10-12T01:26:50.316Z,1
2018-10-12T01:27:19.804Z,1
2018-10-12T01:27:49.298Z,1
2018-10-12T01:28:18.792Z,1
2018-10-12T01:28:48.283Z,1
2018-10-12T01:29:17.788Z,1
2018-10-12T01:29:47.261Z,1
2018-10-12T01:30:17.760Z,1
2018-10-12T01:30:47.251Z,1
2018-10-12T01:31:16.800Z,1
2018-10-12T01:31:46.299Z,1
2018-10-12T01:32:15.790Z,1
2018-10-12T01:32:45.290Z,1
2018-10-12T01:33:14.782Z,1
2018-10-12T01:33:44.301Z,1
2018-10-12T01:34:13.789Z,1
2018-10-12T01:34:43.273Z,1
2018-10-12T01:35:12.768Z,1
2018-10-12T01:35:42.255Z,1
2018-10-12T01:36:11.810Z,1
2018-10-12T01:36:41.303Z,1
2018-10-12T01:37:10.795Z,1
2018-10-12T01:37:40.286Z,1
2018-10-12T01:38:09.781Z,1
2018-10-12T01:38:39.289Z,1
2018-10-12T01:39:08.784Z,1
2018-10-12T01:39:38.268Z,1
2018-10-12T01:40:07.765Z,1
2018-10-12T01:40:37.281Z,1
2018-10-12T01:41:06.778Z,1
2018-10-12T01:41:36.305Z,1
2018-10-12T01:42:05.792Z,1
2018-10-12T01:42:35.278Z,1
2018-10-12T01:43:04.772Z,1
2018-10-12T01:43:34.264Z,1
2018-10-12T01:44:04.749Z,1
2018-10-12T01:44:34.249Z,1
2018-10-12T01:45:03.741Z,1
2018-10-12T01:45:33.243Z,1
2018-10-12T01:46:02.742Z,1
2018-10-12T01:46:32.287Z,1
2018-10-12T01:47:01.776Z,1
2018-10-12T01:47:31.304Z,1
2018-10-12T01:48:00.797Z,1
2018-10-12T01:48:30.278Z,1
2018-10-12T01:48:59.779Z,1
2018-10-12T01:49:29.272Z,1
2018-10-12T01:49:58.763Z,1
2018-10-12T01:50:28.267Z,1
2018-10-12T01:50:57.759Z,1
2018-10-12T01:51:27.251Z,1
2018-10-12T01:51:56.846Z,1
2018-10-12T01:52:26.337Z,1
2018-10-12T01:52:55.828Z,1
2018-10-12T01:53:25.318Z,1
2018-10-12T01:53:54.811Z,1
2018-10-12T01:54:24.300Z,1
2018-10-12T01:54:53.792Z,1
2018-10-12T01:55:24.277Z,1
2018-10-12T01:55:53.774Z,1
2018-10-12T01:56:23.264Z,1
2018-10-12T01:56:52.813Z,1
2018-10-12T01:57:22.340Z,1
2018-10-12T01:57:51.829Z,1
2018-10-12T01:58:21.320Z,1
2018-10-12T01:58:50.814Z,1
2018-10-12T01:59:20.325Z,1
2018-10-12T01:59:49.852Z,1
2018-10-12T02:00:19.346Z,1
2018-10-12T02:00:48.836Z,1
2018-10-12T02:01:18.330Z,1
2018-10-12T02:01:48.828Z,1
2018-10-12T02:02:18.373Z,1
2018-10-12T02:02:47.858Z,1
2018-10-12T02:03:17.361Z,1
2018-10-12T02:03:46.863Z,1
2018-10-12T02:04:16.352Z,1
2018-10-12T02:04:45.837Z,1
2018-10-12T02:05:15.328Z,1
2018-10-12T02:05:44.818Z,1
2018-10-12T02:06:14.309Z,1
2018-10-12T02:06:43.803Z,1
2018-10-12T02:07:13.339Z,1
2018-10-12T02:07:42.863Z,1
2018-10-12T02:08:12.372Z,1
2018-10-12T02:08:41.870Z,1
2018-10-12T02:09:11.362Z,1
2018-10-12T02:09:40.917Z,1
2018-10-12T02:10:10.478Z,1
2018-10-12T02:10:39.902Z,1
2018-10-12T02:11:09.403Z,0
2018-10-12T02:11:38.890Z,0
2018-10-12T02:12:08.397Z,0
2018-10-12T02:12:37.942Z,0
2018-10-12T02:13:08.422Z,0
2018-10-12T02:13:37.914Z,0
2018-10-12T02:14:07.413Z,0
2018-10-12T02:14:36.908Z,0
2018-10-12T02:15:06.396Z,0
2018-10-12T02:15:35.896Z,0
2018-10-12T02:16:05.379Z,0
2018-10-12T02:16:34.880Z,0
2018-10-12T02:17:04.378Z,0
2018-10-12T02:17:33.930Z,0
2018-10-12T02:18:03.416Z,0
2018-10-12T02:18:32.910Z,0
2018-10-12T02:19:02.398Z,0
2018-10-12T02:19:31.894Z,0
2018-10-12T02:20:01.386Z,0
2018-10-12T02:20:30.876Z,0
2018-10-12T02:21:00.373Z,0
2018-10-12T02:21:29.862Z,0
2018-10-12T02:21:59.356Z,0
2018-10-12T02:22:28.846Z,0
2018-10-12T02:22:58.407Z,0
2018-10-12T02:23:27.954Z,0
2018-10-12T02:23:57.460Z,0
2018-10-12T02:24:27.942Z,0
2018-10-12T02:24:57.427Z,0
2018-10-12T02:25:26.925Z,0
2018-10-12T02:25:56.413Z,0
2018-10-12T02:26:25.916Z,0
2018-10-12T02:26:55.449Z,0
2018-10-12T02:27:24.967Z,0
2018-10-12T02:27:54.512Z,0
2018-10-12T02:28:24.036Z,0
2018-10-12T02:28:53.523Z,0
2018-10-12T02:29:23.016Z,0
2018-10-12T02:29:52.542Z,0
2018-10-12T02:30:22.038Z,0
2018-10-12T02:30:51.529Z,0
2018-10-12T02:31:21.023Z,0
2018-10-12T02:31:50.514Z,0
2018-10-12T02:32:20.005Z,0
2018-10-12T02:32:49.521Z,0
2018-10-12T02:33:19.056Z,0
2018-10-12T02:33:48.551Z,0
2018-10-12T02:34:19.125Z,0
2018-10-12T02:34:48.613Z,0
2018-10-12T02:35:18.125Z,0
2018-10-12T02:35:47.617Z,0
2018-10-12T02:36:17.106Z,0
2018-10-12T02:36:46.589Z,0
2018-10-12T02:37:16.083Z,0
2018-10-12T02:37:46.583Z,0
2018-10-12T02:38:16.120Z,0
2018-10-12T02:38:45.613Z,0
2018-10-12T02:39:15.118Z,0
2018-10-12T02:39:44.610Z,0
2018-10-12T02:40:14.115Z,0
2018-10-12T02:40:43.610Z,0
2018-10-12T02:41:13.109Z,0
2018-10-12T02:41:42.596Z,0
2018-10-12T02:42:12.083Z,0
2018-10-12T02:42:41.587Z,0
2018-10-12T02:43:11.074Z,0
2018-10-12T02:43:40.629Z,0
2018-10-12T02:44:10.122Z,0
2018-10-12T02:44:39.612Z,0
2018-10-12T02:45:09.107Z,0
2018-10-12T02:45:38.625Z,0
2018-10-12T02:46:08.116Z,0
2018-10-12T02:46:37.617Z,0
2018-10-12T02:47:07.112Z,0
2018-10-12T02:47:36.594Z,0
2018-10-12T02:48:06.091Z,0
2018-10-12T02:48:35.640Z,0
2018-10-12T02:49:05.137Z,0
2018-10-12T02:49:34.634Z,0
2018-10-12T02:50:04.121Z,0
2018-10-12T02:50:33.611Z,0
2018-10-12T02:51:03.123Z,0
2018-10-12T02:51:32.619Z,0
2018-10-12T02:52:02.110Z,0
2018-10-12T02:52:31.595Z,0
2018-10-12T02:53:01.100Z,0
2018-10-12T02:53:30.587Z,0
2018-10-12T02:54:00.129Z,0
2018-10-12T02:54:29.651Z,0
2018-10-12T02:54:59.142Z,0
2018-10-12T02:55:29.639Z,0
2018-10-12T02:55:59.134Z,0
2018-10-12T02:56:28.637Z,0
2018-10-12T02:56:59.123Z,0
2018-10-12T02:57:29.607Z,0
2018-10-12T02:57:59.098Z,0
2018-10-12T02:58:28.587Z,0
2018-10-12T02:58:58.125Z,0
2018-10-12T02:59:27.619Z,0
2018-10-12T02:59:58.107Z,0
2018-10-12T03:00:27.580Z,0
2018-10-12T03:00:57.081Z,0
2018-10-12T03:01:26.569Z,0
2018-10-12T03:01:56.057Z,0
2018-10-12T03:02:25.560Z,0
2018-10-12T03:02:56.053Z,0
2018-10-12T03:03:25.555Z,0
2018-10-12T03:03:55.092Z,0
2018-10-12T03:04:24.591Z,0
2018-10-12T03:04:54.084Z,0
2018-10-12T03:05:23.588Z,0
2018-10-12T03:05:53.088Z,0
2018-10-12T03:06:22.651Z,0
2018-10-12T03:06:52.150Z,0
2018-10-12T03:07:21.637Z,0
2018-10-12T03:07:51.129Z,0
2018-10-12T03:08:20.620Z,0
2018-10-12T03:08:50.111Z,0
2018-10-12T03:09:19.691Z,0
2018-10-12T03:09:49.175Z,0
2018-10-12T03:10:18.674Z,0
2018-10-12T03:10:48.167Z,0
2018-10-12T03:11:17.667Z,0
2018-10-12T03:11:47.182Z,0
2018-10-12T03:12:16.678Z,0
2018-10-12T03:12:46.167Z,0
2018-10-12T03:13:15.658Z,0
2018-10-12T03:13:45.183Z,0
2018-10-12T03:14:14.735Z,0
2018-10-12T03:14:45.215Z,0
2018-10-12T03:15:14.709Z,0
2018-10-12T03:15:44.213Z,0
2018-10-12T03:16:13.699Z,0
2018-10-12T03:16:43.194Z,0
2018-10-12T03:17:12.682Z,0
2018-10-12T03:17:43.166Z,0
2018-10-12T03:18:12.657Z,0
2018-10-12T03:18:42.166Z,0
2018-10-12T03:19:11.662Z,0
2018-10-12T03:19:41.206Z,0
2018-10-12T03:20:10.710Z,0
2018-10-12T03:20:40.211Z,0
2018-10-12T03:21:09.725Z,0
2018-10-12T03:21:40.193Z,0
2018-10-12T03:22:09.709Z,0
2018-10-12T03:22:39.205Z,0
2018-10-12T03:23:08.687Z,0
2018-10-12T03:23:38.194Z,0
2018-10-12T03:24:08.676Z,0
2018-10-12T03:24:38.239Z,0
2018-10-12T03:25:07.712Z,0
2018-10-12T03:25:37.204Z,0
2018-10-12T03:26:06.696Z,0
2018-10-12T03:26:36.209Z,0
2018-10-12T03:27:05.697Z,0
2018-10-12T03:27:36.183Z,0
2018-10-12T03:28:05.692Z,0
2018-10-12T03:28:35.177Z,0
2018-10-12T03:29:04.674Z,0
2018-10-12T03:29:35.225Z,0
2018-10-12T03:30:04.744Z,0
2018-10-12T03:30:34.211Z,0
2018-10-12T03:31:03.699Z,0
2018-10-12T03:31:33.201Z,0
2018-10-12T03:32:02.696Z,0
2018-10-12T03:32:32.202Z,0
2018-10-12T03:33:01.688Z,0
2018-10-12T03:33:31.238Z,0
2018-10-12T03:34:00.765Z,0
2018-10-12T03:34:30.250Z,0
2018-10-12T03:34:59.859Z,0
2018-10-12T03:35:29.352Z,0
2018-10-12T03:35:58.840Z,0
2018-10-12T03:36:28.335Z,0
2018-10-12T03:36:57.840Z,0
2018-10-12T03:37:27.347Z,0
2018-10-12T03:37:56.869Z,0
2018-10-12T03:38:26.352Z,0
2018-10-12T03:38:55.840Z,0
2018-10-12T03:39:25.336Z,0
2018-10-12T03:39:54.880Z,0
2018-10-12T03:40:24.376Z,0
2018-10-12T03:40:53.881Z,0
2018-10-12T03:41:23.372Z,0
2018-10-12T03:41:52.863Z,0
2018-10-12T03:42:22.346Z,0
2018-10-12T03:42:51.847Z,0
2018-10-12T03:43:21.355Z,0
2018-10-12T03:43:50.853Z,0
2018-10-12T03:44:20.360Z,0
2018-10-12T03:44:49.851Z,0
2018-10-12T03:45:19.402Z,0
2018-10-12T03:45:48.890Z,0
2018-10-12T03:46:18.409Z,0
2018-10-12T03:46:47.905Z,0
2018-10-12T03:47:17.397Z,0
2018-10-12T03:47:46.915Z,0
2018-10-12T03:48:16.424Z,0
2018-10-12T03:48:45.917Z,0
2018-10-12T03:49:15.429Z,0
2018-10-12T03:49:44.934Z,0
2018-10-12T03:50:14.486Z,0
2018-10-12T03:50:43.973Z,0
2018-10-12T03:51:13.464Z,0
2018-10-12T03:51:42.982Z,0
2018-10-12T03:52:12.458Z,0
2018-10-12T03:52:41.948Z,0
2018-10-12T03:53:11.440Z,0
2018-10-12T03:53:40.943Z,0
2018-10-12T03:54:10.451Z,0
2018-10-12T03:54:39.999Z,0
2018-10-12T03:55:10.586Z,0
2018-10-12T03:55:40.140Z,0
2018-10-12T03:56:09.639Z,0
2018-10-12T03:56:39.124Z,0
2018-10-12T03:57:08.658Z,0
2018-10-12T03:57:39.603Z,0
2018-10-12T03:58:09.146Z,0
2018-10-12T03:58:38.650Z,0
2018-10-12T03:59:08.159Z,0
2018-10-12T03:59:37.653Z,0
2018-10-12T04:00:07.139Z,0
2018-10-12T04:00:36.709Z,0
2018-10-12T04:01:06.243Z,0
2018-10-12T04:01:35.718Z,0
2018-10-12T04:02:05.215Z,0
2018-10-12T04:02:34.737Z,0
2018-10-12T04:03:04.233Z,0
2018-10-12T04:03:33.729Z,0
2018-10-12T04:04:03.221Z,0
2018-10-12T04:04:32.729Z,0
2018-10-12T04:05:02.252Z,0
2018-10-12T04:05:31.748Z,0
2018-10-12T04:06:01.308Z,0
2018-10-12T04:06:30.828Z,0
2018-10-12T04:07:00.357Z,0
2018-10-12T04:07:29.849Z,0
2018-10-12T04:07:59.350Z,0
2018-10-12T04:08:28.853Z,0
2018-10-12T04:08:58.348Z,0
2018-10-12T04:09:27.854Z,0
2018-10-12T04:09:57.349Z,0
2018-10-12T04:10:26.854Z,0
2018-10-12T04:10:56.405Z,0
2018-10-12T04:11:25.903Z,0
2018-10-12T04:11:55.514Z,0
2018-10-12T04:12:24.970Z,0
2018-10-12T04:12:54.439Z,0
2018-10-12T04:13:24.577Z,0
2018-10-12T04:13:56.101Z,0
2018-10-12T04:14:27.453Z,0
2018-10-12T04:14:59.352Z,0
2018-10-12T04:15:32.638Z,0
2018-10-12T04:16:05.547Z,0
2018-10-12T04:16:37.413Z,0
2018-10-12T04:17:10.058Z,0
2018-10-12T04:17:41.586Z,0
2018-10-12T04:18:12.752Z,0
2018-10-12T04:18:44.422Z,0
2018-10-12T04:19:16.589Z,0
2018-10-12T04:19:49.380Z,0
2018-10-12T04:20:22.099Z,0
2018-10-12T04:20:57.052Z,0
2018-10-12T04:21:31.382Z,0
2018-10-12T04:22:05.604Z,0
2018-10-12T04:22:39.368Z,0
2018-10-12T04:23:11.888Z,0
2018-10-12T04:23:45.534Z,0
2018-10-12T04:24:16.887Z,0
2018-10-12T04:24:46.867Z,0
2018-10-12T04:25:17.524Z,0
2018-10-12T04:25:48.185Z,0
2018-10-12T04:26:19.791Z,0
2018-10-12T04:26:49.544Z,0
2018-10-12T04:27:19.067Z,0
2018-10-12T04:27:48.600Z,0
2018-10-12T04:28:18.772Z,0
2018-10-12T04:28:49.396Z,0
2018-10-12T04:29:18.938Z,0
2018-10-12T04:29:49.328Z,0
2018-10-12T04:30:18.993Z,0
2018-10-12T04:30:49.507Z,0
2018-10-12T04:31:19.134Z,0
2018-10-12T04:31:48.710Z,0
2018-10-12T04:32:18.236Z,0
2018-10-12T04:32:47.815Z,0
2018-10-12T04:33:17.502Z,0
2018-10-12T04:33:47.995Z,0
2018-10-12T04:34:17.593Z,0
2018-10-12T04:34:47.108Z,0
2018-10-12T04:35:16.597Z,0
2018-10-12T04:35:46.107Z,0
2018-10-12T04:36:15.593Z,0
2018-10-12T04:36:45.146Z,0
2018-10-12T04:37:14.713Z,0
2018-10-12T04:37:47.536Z,0
2018-10-12T04:38:18.224Z,0
2018-10-12T04:38:48.868Z,0
2018-10-12T04:39:20.132Z,0
2018-10-12T04:39:50.783Z,0
2018-10-12T04:40:22.726Z,0
2018-10-12T04:40:53.926Z,0
2018-10-12T04:41:24.400Z,0
2018-10-12T04:41:54.834Z,0
2018-10-12T04:42:25.252Z,0
2018-10-12T04:42:55.144Z,0
2018-10-12T04:43:24.634Z,0
2018-10-12T04:43:54.157Z,0
2018-10-12T04:44:23.631Z,0
2018-10-12T04:44:53.118Z,0
2018-10-12T04:45:22.617Z,0
2018-10-12T04:45:52.126Z,0
2018-10-12T04:46:21.679Z,0
2018-10-12T04:46:51.219Z,0
2018-10-12T04:47:20.843Z,0
2018-10-12T04:47:50.197Z,0
2018-10-12T04:48:19.709Z,0
2018-10-12T04:48:49.231Z,0
2018-10-12T04:49:18.733Z,0
2018-10-12T04:49:48.217Z,0
2018-10-12T04:50:17.714Z,0
2018-10-12T04:50:47.224Z,0
2018-10-12T04:51:16.719Z,0
2018-10-12T04:51:46.274Z,0
2018-10-12T04:52:15.762Z,0
2018-10-12T04:52:45.252Z,0
2018-10-12T04:53:15.754Z,0
2018-10-12T04:53:45.380Z,0
2018-10-12T04:54:14.729Z,0
2018-10-12T04:54:45.214Z,0
2018-10-12T04:55:14.703Z,0
2018-10-12T04:55:44.197Z,0
2018-10-12T04:56:13.679Z,0
2018-10-12T04:56:43.232Z,0
2018-10-12T04:57:12.734Z,0
2018-10-12T04:57:42.216Z,0
2018-10-12T04:58:11.746Z,0
2018-10-12T04:58:41.250Z,0
2018-10-12T04:59:10.729Z,0
2018-10-12T04:59:40.223Z,0
2018-10-12T05:00:09.719Z,0
2018-10-12T05:00:39.279Z,0
2018-10-12T05:01:08.803Z,0
2018-10-12T05:01:38.226Z,0
2018-10-12T05:02:07.780Z,0
2018-10-12T05:02:37.270Z,0
2018-10-12T05:03:06.762Z,0
2018-10-12T05:03:36.251Z,0
2018-10-12T05:04:05.800Z,0
2018-10-12T05:04:35.296Z,0
2018-10-12T05:05:04.791Z,0
2018-10-12T05:05:34.285Z,0
2018-10-12T05:06:03.799Z,0
2018-10-12T05:06:33.295Z,0
2018-10-12T05:07:03.828Z,0
2018-10-12T05:07:33.339Z,0
2018-10-12T05:08:02.827Z,0
2018-10-12T05:08:32.328Z,0
2018-10-12T05:09:01.821Z,0
2018-10-12T05:09:31.323Z,0
2018-10-12T05:10:00.817Z,0
2018-10-12T05:10:30.369Z,0
2018-10-12T05:10:59.824Z,0
2018-10-12T05:11:29.330Z,0
2018-10-12T05:11:58.888Z,0
2018-10-12T05:12:28.453Z,0
2018-10-12T05:12:57.964Z,0
2018-10-12T05:13:27.455Z,0
2018-10-12T05:13:56.951Z,0
2018-10-12T05:14:26.445Z,0
2018-10-12T05:14:55.936Z,0
2018-10-12T05:15:25.430Z,0
2018-10-12T05:15:54.950Z,0
2018-10-12T05:16:24.458Z,0
2018-10-12T05:16:53.955Z,0
2018-10-12T05:17:23.535Z,0
2018-10-12T05:17:53.036Z,0
2018-10-12T05:18:22.585Z,0
2018-10-12T05:18:52.079Z,0
2018-10-12T05:19:21.609Z,0
2018-10-12T05:19:51.095Z,0
2018-10-12T05:20:20.590Z,0
2018-10-12T05:20:50.084Z,0
2018-10-12T05:21:19.584Z,0
2018-10-12T05:21:49.084Z,0
2018-10-12T05:22:18.720Z,0
2018-10-12T05:22:48.134Z,0
2018-10-12T05:23:17.621Z,0
2018-10-12T05:23:47.112Z,0
2018-10-12T05:24:16.619Z,0
2018-10-12T05:24:46.113Z,0
2018-10-12T05:25:15.623Z,0
2018-10-12T05:25:45.112Z,0
2018-10-12T05:26:14.601Z,0
2018-10-12T05:26:44.097Z,0
2018-10-12T05:27:13.591Z,0
2018-10-12T05:27:43.165Z,0
2018-10-12T05:28:12.657Z,0
2018-10-12T05:28:42.161Z,0
2018-10-12T05:29:11.653Z,0
2018-10-12T05:29:41.142Z,0
2018-10-12T05:30:10.693Z,0
2018-10-12T05:30:40.125Z,0
2018-10-12T05:31:09.618Z,0
2018-10-12T05:31:39.154Z,0
2018-10-12T05:32:08.643Z,0
2018-10-12T05:32:38.139Z,0
2018-10-12T05:33:07.687Z,0
2018-10-12T05:33:37.175Z,0
2018-10-12T05:34:06.668Z,0
2018-10-12T05:34:36.159Z,0
2018-10-12T05:35:05.644Z,0
2018-10-12T05:35:35.174Z,0
2018-10-12T05:36:04.773Z,0
2018-10-12T05:36:34.174Z,0
2018-10-12T05:37:04.651Z,0
2018-10-12T05:37:34.138Z,0
2018-10-12T05:38:03.682Z,0
2018-10-12T05:38:33.184Z,0
2018-10-12T05:39:02.686Z,0
2018-10-12T05:39:32.165Z,0
2018-10-12T05:40:01.653Z,0
2018-10-12T05:40:31.237Z,0
2018-10-12T05:41:00.730Z,0
2018-10-12T05:41:30.217Z,0
2018-10-12T05:41:59.709Z,0
2018-10-12T05:42:29.221Z,0
2018-10-12T05:42:58.785Z,0
2018-10-12T05:43:28.400Z,0
2018-10-12T05:43:57.747Z,0
2018-10-12T05:44:27.237Z,0
2018-10-12T05:44:56.723Z,0
2018-10-12T05:45:26.220Z,0
2018-10-12T05:45:55.721Z,0
2018-10-12T05:46:25.215Z,0
2018-10-12T05:46:54.706Z,0
2018-10-12T05:47:24.208Z,0
2018-10-12T05:47:53.701Z,0
2018-10-12T05:48:23.252Z,0
2018-10-12T05:48:52.783Z,0
2018-10-12T05:49:22.236Z,0
2018-10-12T05:49:51.740Z,0
2018-10-12T05:50:21.246Z,0
2018-10-12T05:50:50.757Z,0
2018-10-12T05:51:20.250Z,1
2018-10-12T05:51:49.810Z,1
2018-10-12T05:52:19.304Z,1
2018-10-12T05:52:48.795Z,0
2018-10-12T05:53:19.279Z,0
2018-10-12T05:53:48.826Z,1
2018-10-12T05:54:19.303Z,1
2018-10-12T05:54:48.792Z,0
2018-10-12T05:55:18.287Z,1
2018-10-12T05:55:47.827Z,1
2018-10-12T05:56:17.272Z,1
2018-10-12T05:56:46.759Z,2
2018-10-12T05:57:16.248Z,1
2018-10-12T05:57:45.740Z,1
2018-10-12T05:58:15.239Z,1
2018-10-12T05:58:44.813Z,2
2018-10-12T05:59:14.308Z,2
2018-10-12T05:59:43.808Z,3
2018-10-12T06:00:13.311Z,2
2018-10-12T06:00:42.805Z,3
2018-10-12T06:01:12.320Z,3
2018-10-12T06:01:41.797Z,4
2018-10-12T06:02:11.279Z,4
2018-10-12T06:02:40.809Z,5
2018-10-12T06:03:10.303Z,6
2018-10-12T06:03:39.792Z,6
2018-10-12T06:04:09.334Z,7
2018-10-12T06:04:38.838Z,8
2018-10-12T06:05:08.329Z,9
2018-10-12T06:05:37.819Z,10
2018-10-12T06:06:07.313Z,10
2018-10-12T06:06:36.831Z,12
2018-10-12T06:07:06.355Z,13
2018-10-12T06:07:35.858Z,14
2018-10-12T06:08:05.355Z,15
2018-10-12T06:08:34.860Z,17
2018-10-12T06:09:04.407Z,19
2018-10-12T06:09:33.990Z,20
2018-10-12T06:10:05.400Z,22
2018-10-12T06:10:34.861Z,23
2018-10-12T06:11:04.355Z,26
2018-10-12T06:11:33.843Z,28
2018-10-12T06:12:03.330Z,30
2018-10-12T06:12:32.825Z,31
2018-10-12T06:13:02.313Z,34
2018-10-12T06:13:31.809Z,36
2018-10-12T06:14:01.300Z,38
2018-10-12T06:14:30.841Z,41
2018-10-12T06:15:00.343Z,44
2018-10-12T06:15:29.903Z,46
2018-10-12T06:15:59.454Z,50
2018-10-12T06:16:28.824Z,53
2018-10-12T06:16:58.311Z,56
2018-10-12T06:17:27.807Z,60
2018-10-12T06:17:57.321Z,63
2018-10-12T06:18:26.860Z,67
2018-10-12T06:18:56.358Z,71
2018-10-12T06:19:25.913Z,76
2018-10-12T06:19:55.421Z,80
2018-10-12T06:20:25.901Z,83
2018-10-12T06:20:55.392Z,88
2018-10-12T06:21:24.907Z,94
2018-10-12T06:21:54.425Z,98
2018-10-12T06:22:24.702Z,103
2018-10-12T06:22:54.193Z,109
2018-10-12T06:23:23.687Z,113
2018-10-12T06:23:53.185Z,119
2018-10-12T06:24:22.729Z,123
2018-10-12T06:24:52.272Z,128
2018-10-12T06:25:21.784Z,134
2018-10-12T06:25:51.277Z,140
2018-10-12T06:26:20.773Z,147
2018-10-12T06:26:50.361Z,153
2018-10-12T06:27:19.746Z,159
2018-10-12T06:27:50.226Z,166
2018-10-12T06:28:19.723Z,173
2018-10-12T06:28:49.222Z,179
2018-10-12T06:29:18.722Z,185
2018-10-12T06:29:48.286Z,191
2018-10-12T06:30:17.782Z,197
2018-10-12T06:30:47.282Z,204
2018-10-12T06:31:16.800Z,211
2018-10-12T06:31:46.299Z,219
2018-10-12T06:32:15.781Z,225
2018-10-12T06:32:45.292Z,232
2018-10-12T06:33:14.771Z,238
2018-10-12T06:33:44.296Z,245
2018-10-12T06:34:13.820Z,252
2018-10-12T06:34:43.382Z,258
2018-10-12T06:35:12.885Z,264
2018-10-12T06:35:42.389Z,271
2018-10-12T06:36:11.890Z,277
2018-10-12T06:36:41.392Z,285
2018-10-12T06:37:10.946Z,292
2018-10-12T06:37:40.478Z,298
2018-10-12T06:38:09.989Z,306
2018-10-12T06:38:39.515Z,312
2018-10-12T06:39:09.010Z,319
2018-10-12T06:39:38.516Z,326
2018-10-12T06:40:08.089Z,333
2018-10-12T06:40:38.616Z,341
2018-10-12T06:41:08.095Z,350
2018-10-12T06:41:38.746Z,359
2018-10-12T06:42:08.140Z,369
2018-10-12T06:42:37.630Z,380
2018-10-12T06:43:07.161Z,392
2018-10-12T06:43:36.645Z,406
2018-10-12T06:44:06.138Z,420
2018-10-12T06:44:35.635Z,488
2018-10-12T06:45:05.313Z,620
2018-10-12T06:45:35.004Z,775
2018-10-12T06:46:04.594Z,929
2018-10-12T06:46:34.484Z,1056
2018-10-12T06:47:03.976Z,1121
2018-10-12T06:47:33.604Z,1142
2018-10-12T06:48:03.259Z,1150
2018-10-12T06:48:32.775Z,1165
2018-10-12T06:49:02.273Z,1201
2018-10-12T06:49:32.757Z,1253
2018-10-12T06:50:02.263Z,1316
2018-10-12T06:50:31.839Z,1378
2018-10-12T06:51:01.346Z,1445
2018-10-12T06:51:30.852Z,1492
2018-10-12T06:52:00.340Z,1504
2018-10-12T06:52:29.837Z,1532
2018-10-12T06:52:59.338Z,1582
2018-10-12T06:53:28.834Z,1666
2018-10-12T06:53:58.430Z,1730
2018-10-12T06:54:27.893Z,1808
2018-10-12T06:54:57.414Z,1855
2018-10-12T06:55:26.965Z,1894
2018-10-12T06:55:56.468Z,1924
2018-10-12T06:56:25.970Z,1976
2018-10-12T06:56:55.461Z,2018
2018-10-12T06:57:24.961Z,2061
2018-10-12T06:57:55.107Z,2100
2018-10-12T06:58:24.621Z,2114
2018-10-12T06:58:54.143Z,2136
2018-10-12T06:59:23.666Z,2195
2018-10-12T06:59:53.247Z,2254
2018-10-12T07:00:22.743Z,2307
2018-10-12T07:00:52.296Z,2377
2018-10-12T07:01:21.804Z,2425
2018-10-12T07:01:51.326Z,2469
2018-10-12T07:02:20.889Z,2511
2018-10-12T07:02:50.383Z,2556
2018-10-12T07:03:20.514Z,2606
2018-10-12T07:03:49.445Z,2669
2018-10-12T07:04:18.968Z,2731
2018-10-12T07:04:48.452Z,2779
2018-10-12T07:05:17.948Z,2822
2018-10-12T07:05:47.595Z,2887
2018-10-12T07:06:17.034Z,2939
2018-10-12T07:06:46.528Z,2994
2018-10-12T07:07:16.047Z,3049
2018-10-12T07:07:45.597Z,3102
2018-10-12T07:08:15.119Z,3149
2018-10-12T07:08:44.666Z,3184
2018-10-12T07:09:14.191Z,3223
2018-10-12T07:09:43.691Z,3264
2018-10-12T07:10:13.227Z,3314
2018-10-12T07:10:42.757Z,3377
2018-10-12T07:11:12.355Z,3434
2018-10-12T07:11:41.870Z,3488
2018-10-12T07:12:11.565Z,3550
2018-10-12T07:12:41.115Z,3598
2018-10-12T07:13:11.206Z,3650